createdAt,value
2023-03-19T00:00:33.260Z,65.66
2023-03-19T00:03:01.340Z,65.86
2023-03-19T00:05:29.423Z,66.54
2023-03-19T00:07:57.410Z,66.24
2023-03-19T00:10:25.478Z,66.85
2023-03-19T00:12:53.413Z,67.51
2023-03-19T00:15:22.930Z,67.58
2023-03-19T00:17:50.816Z,67.62
2023-03-19T00:20:20.436Z,68.07
2023-03-19T00:22:48.409Z,67.88
2023-03-19T00:25:16.394Z,68.38
2023-03-19T00:27:44.688Z,68.65
2023-03-19T00:30:13.927Z,68.84
2023-03-19T00:32:43.485Z,68.74
2023-03-19T00:35:11.789Z,69.40
2023-03-19T00:37:39.725Z,69.57
2023-03-19T00:40:09.069Z,69.44
2023-03-19T00:42:37.742Z,69.74
2023-03-19T00:45:06.594Z,69.50
2023-03-19T00:47:34.759Z,70.12
2023-03-19T00:50:04.360Z,69.76
2023-03-19T00:52:32.578Z,70.21
2023-03-19T00:55:00.814Z,69.58
2023-03-19T00:57:28.813Z,69.96
2023-03-19T00:59:56.684Z,69.96
2023-03-19T01:02:24.599Z,69.32
2023-03-19T01:04:52.767Z,68.31
2023-03-19T01:07:22.168Z,67.54
2023-03-19T01:09:50.094Z,66.76
2023-03-19T01:12:19.469Z,66.29
2023-03-19T01:14:47.483Z,66.27
2023-03-19T01:17:15.453Z,66.45
2023-03-19T01:19:43.320Z,66.32
2023-03-19T01:22:11.627Z,65.53
2023-03-19T01:24:41.014Z,65.67
2023-03-19T01:27:09.276Z,65.63
2023-03-19T01:29:37.456Z,65.15
2023-03-19T01:32:06.133Z,65.83
2023-03-19T01:34:34.035Z,65.50
2023-03-19T01:37:02.004Z,65.38
2023-03-19T01:39:29.992Z,65.58
2023-03-19T01:42:02.568Z,65.61
2023-03-19T01:44:32.939Z,66.39
2023-03-19T01:47:03.549Z,66.58
2023-03-19T01:49:32.365Z,66.46
2023-03-19T01:52:03.827Z,66.72
2023-03-19T01:54:33.227Z,66.36
2023-03-19T01:57:07.157Z,66.76
2023-03-19T01:59:38.697Z,66.51
2023-03-19T02:02:12.070Z,66.48
2023-03-19T02:04:43.219Z,66.36
2023-03-19T02:07:12.706Z,65.26
2023-03-19T02:09:42.074Z,66.05
2023-03-19T02:12:12.579Z,65.57
2023-03-19T02:14:40.545Z,65.91
2023-03-19T02:17:08.871Z,65.26
2023-03-19T02:19:47.105Z,63.96
2023-03-19T02:22:17.813Z,64.84
2023-03-19T02:24:52.857Z,65.25
2023-03-19T02:27:22.263Z,64.29
2023-03-19T02:29:50.282Z,63.42
2023-03-19T02:32:18.196Z,63.18
2023-03-19T02:34:46.665Z,64.11
2023-03-19T02:37:19.524Z,63.82
2023-03-19T02:40:00.553Z,63.29
2023-03-19T02:42:30.735Z,63.17
2023-03-19T02:44:59.252Z,62.50
2023-03-19T02:47:28.345Z,62.54
2023-03-19T02:49:56.517Z,62.76
2023-03-19T02:52:24.606Z,63.07
2023-03-19T02:54:52.575Z,63.52
2023-03-19T02:57:20.849Z,62.74
2023-03-19T02:59:50.080Z,63.10
2023-03-19T03:02:18.150Z,62.43
2023-03-19T03:04:46.625Z,62.48
2023-03-19T03:07:14.570Z,63.15
2023-03-19T03:09:42.523Z,62.76
2023-03-19T03:12:11.124Z,63.33
2023-03-19T03:14:39.214Z,63.30
2023-03-19T03:17:08.775Z,64.02
2023-03-19T03:19:36.868Z,64.04
2023-03-19T03:22:05.637Z,64.37
2023-03-19T03:24:33.559Z,64.40
2023-03-19T03:27:01.412Z,63.97
2023-03-19T03:29:29.517Z,63.97
2023-03-19T03:31:57.496Z,63.57
2023-03-19T03:34:26.857Z,64.66
2023-03-19T03:36:54.824Z,63.80
2023-03-19T03:39:23.171Z,64.30
2023-03-19T03:41:51.631Z,64.50
2023-03-19T03:44:19.588Z,64.78
2023-03-19T03:46:48.185Z,64.44
2023-03-19T03:49:16.652Z,64.53
2023-03-19T03:51:45.961Z,64.70
2023-03-19T03:54:13.995Z,64.21
2023-03-19T03:56:42.064Z,64.27
2023-03-19T03:59:10.118Z,63.66
2023-03-19T04:01:38.122Z,63.18
2023-03-19T04:04:06.157Z,63.57
2023-03-19T04:06:34.871Z,63.35
2023-03-19T04:09:05.401Z,63.43
2023-03-19T04:11:33.362Z,63.17
2023-03-19T04:14:01.477Z,63.13
2023-03-19T04:16:29.910Z,63.49
2023-03-19T04:18:57.841Z,63.73
2023-03-19T04:21:26.282Z,63.76
2023-03-19T04:23:54.181Z,65.42
2023-03-19T04:26:23.500Z,65.45
2023-03-19T04:28:51.717Z,65.71
2023-03-19T04:31:19.750Z,65.14
2023-03-19T04:33:47.804Z,65.12
2023-03-19T04:36:15.728Z,64.88
2023-03-19T04:38:43.678Z,64.25
2023-03-19T04:41:11.965Z,64.35
2023-03-19T04:43:41.307Z,63.58
2023-03-19T04:46:09.349Z,63.51
2023-03-19T04:48:39.454Z,64.09
2023-03-19T04:51:09.233Z,63.69
2023-03-19T04:53:37.912Z,63.45
2023-03-19T04:56:07.016Z,63.04
2023-03-19T04:58:35.030Z,63.12
2023-03-19T05:01:04.512Z,63.26
2023-03-19T05:03:32.541Z,62.10
2023-03-19T05:06:00.524Z,62.40
2023-03-19T05:08:28.574Z,62.84
2023-03-19T05:10:56.455Z,62.43
2023-03-19T05:13:24.330Z,61.96
2023-03-19T05:15:55.061Z,62.38
2023-03-19T05:18:25.019Z,62.40
2023-03-19T05:20:53.401Z,63.44
2023-03-19T05:23:21.467Z,62.63
2023-03-19T05:25:49.402Z,62.31
2023-03-19T05:28:17.521Z,62.25
2023-03-19T05:30:45.549Z,62.07
2023-03-19T05:33:13.623Z,62.45
2023-03-19T05:35:42.992Z,62.48
2023-03-19T05:38:11.952Z,62.19
2023-03-19T05:40:42.004Z,62.78
2023-03-19T05:43:10.630Z,62.36
2023-03-19T05:45:38.951Z,62.02
2023-03-19T05:48:07.676Z,61.63
2023-03-19T05:50:36.007Z,61.23
2023-03-19T05:53:05.388Z,61.15
2023-03-19T05:55:33.331Z,62.02
2023-03-19T05:58:01.684Z,59.53
2023-03-19T06:00:29.701Z,58.77
2023-03-19T06:02:57.644Z,57.51
2023-03-19T06:05:25.862Z,55.92
2023-03-19T06:07:53.853Z,54.99
2023-03-19T06:10:23.233Z,52.56
2023-03-19T06:12:51.618Z,51.55
2023-03-19T06:15:19.603Z,50.51
2023-03-19T06:17:48.897Z,50.31
2023-03-19T06:20:17.016Z,49.62
2023-03-19T06:22:45.887Z,48.69
2023-03-19T06:25:13.825Z,49.41
2023-03-19T06:27:43.106Z,47.82
2023-03-19T06:30:12.291Z,48.02
2023-03-19T06:32:40.517Z,46.47
2023-03-19T06:35:09.094Z,47.05
2023-03-19T06:37:37.822Z,46.47
2023-03-19T06:40:06.677Z,45.29
2023-03-19T06:42:34.810Z,45.77
2023-03-19T06:45:04.509Z,45.51
2023-03-19T06:47:32.485Z,44.86
2023-03-19T06:50:01.162Z,44.77
2023-03-19T06:52:29.216Z,46.15
2023-03-19T06:54:57.298Z,45.88
2023-03-19T06:57:25.278Z,46.28
2023-03-19T06:59:53.449Z,45.62
2023-03-19T07:02:23.249Z,44.03
2023-03-19T07:04:52.518Z,44.62
2023-03-19T07:07:20.495Z,44.46
2023-03-19T07:09:48.743Z,44.50
2023-03-19T07:12:16.928Z,44.30
2023-03-19T07:14:44.767Z,45.06
2023-03-19T07:17:12.718Z,45.34
2023-03-19T07:19:42.003Z,46.24
2023-03-19T07:22:10.131Z,45.37
2023-03-19T07:24:38.101Z,44.63
2023-03-19T07:27:06.483Z,45.91
2023-03-19T07:29:34.426Z,44.69
2023-03-19T07:32:02.436Z,43.15
2023-03-19T07:34:30.790Z,44.97
2023-03-19T07:37:00.067Z,43.34
2023-03-19T07:39:27.984Z,42.67
2023-03-19T07:41:56.020Z,40.81
2023-03-19T07:44:24.022Z,40.97
2023-03-19T07:46:51.948Z,41.16
2023-03-19T07:49:19.966Z,39.13
2023-03-19T07:51:47.983Z,37.24
2023-03-19T07:54:17.323Z,36.04
2023-03-19T07:56:45.466Z,37.48
2023-03-19T07:59:13.464Z,38.51
2023-03-19T08:01:41.442Z,36.74
2023-03-19T08:04:09.427Z,35.02
2023-03-19T08:06:38.583Z,34.90
2023-03-19T08:09:07.031Z,35.41
2023-03-19T08:11:37.100Z,37.67
2023-03-19T08:14:05.028Z,37.01
2023-03-19T08:16:33.043Z,37.44
2023-03-19T08:19:01.124Z,36.39
2023-03-19T08:21:29.813Z,36.40
2023-03-19T08:23:57.705Z,36.38
2023-03-19T08:26:26.387Z,36.45
2023-03-19T08:28:55.864Z,35.62
2023-03-19T08:31:23.885Z,34.32
2023-03-19T08:33:52.110Z,35.41
2023-03-19T08:36:20.201Z,35.92
2023-03-19T08:38:48.161Z,34.60
2023-03-19T08:41:16.217Z,34.35
2023-03-19T08:43:44.164Z,35.25
2023-03-19T08:46:13.549Z,34.87
2023-03-19T08:48:41.667Z,34.80
2023-03-19T08:51:09.872Z,33.52
2023-03-19T08:53:39.028Z,34.43
2023-03-19T08:56:09.173Z,32.47
2023-03-19T08:58:37.425Z,32.11
2023-03-19T09:01:07.342Z,32.95
2023-03-19T09:03:37.028Z,32.61
2023-03-19T09:06:06.613Z,31.43
2023-03-19T09:08:35.604Z,31.14
2023-03-19T09:11:04.086Z,31.73
2023-03-19T09:13:32.166Z,32.86
2023-03-19T09:16:00.190Z,32.07
2023-03-19T09:18:28.503Z,29.96
2023-03-19T09:20:57.817Z,29.42
2023-03-19T09:23:25.886Z,29.64
2023-03-19T09:25:53.901Z,29.83
2023-03-19T09:28:22.360Z,30.15
2023-03-19T09:30:51.528Z,29.40
2023-03-19T09:33:21.368Z,30.24
2023-03-19T09:35:54.871Z,29.87
2023-03-19T09:38:24.407Z,29.90
2023-03-19T09:41:08.241Z,30.29
2023-03-19T09:43:46.655Z,30.45
2023-03-19T09:46:22.522Z,30.25
2023-03-19T09:48:56.155Z,29.53
2023-03-19T09:51:31.548Z,30.70
2023-03-19T09:54:03.919Z,31.61
2023-03-19T09:56:33.894Z,31.61
2023-03-19T09:59:03.364Z,32.67
2023-03-19T10:01:35.759Z,33.50
2023-03-19T10:04:20.871Z,32.72
2023-03-19T10:06:48.952Z,31.62
2023-03-19T10:09:36.535Z,31.02
2023-03-19T10:12:19.227Z,31.89
2023-03-19T10:14:58.924Z,32.10
2023-03-19T10:17:32.366Z,33.45
2023-03-19T10:20:04.520Z,34.00
2023-03-19T10:22:37.401Z,33.97
2023-03-19T10:25:11.894Z,33.98
2023-03-19T10:27:40.200Z,34.47
2023-03-19T10:30:15.940Z,34.99
2023-03-19T10:32:47.191Z,34.43
2023-03-19T10:35:21.537Z,34.97
2023-03-19T10:37:51.279Z,35.57
2023-03-19T10:40:26.316Z,34.28
2023-03-19T10:43:07.430Z,34.12
2023-03-19T10:45:39.152Z,34.24
2023-03-19T10:48:13.762Z,35.56
2023-03-19T10:50:50.525Z,34.01
2023-03-19T10:53:32.694Z,34.19
2023-03-19T10:56:05.999Z,33.75
2023-03-19T10:58:36.082Z,34.35
2023-03-19T11:01:07.720Z,34.43
2023-03-19T11:03:38.205Z,35.38
2023-03-19T11:06:17.301Z,35.21
2023-03-19T11:08:53.609Z,35.21
2023-03-19T11:11:28.624Z,34.58
2023-03-19T11:13:57.284Z,35.47
2023-03-19T11:16:25.671Z,34.93
2023-03-19T11:18:54.011Z,35.36
2023-03-19T11:21:30.253Z,34.86
2023-03-19T11:24:03.007Z,34.41
2023-03-19T11:26:32.546Z,34.64
2023-03-19T11:29:05.352Z,34.57
2023-03-19T11:31:42.873Z,35.29
2023-03-19T11:34:26.798Z,34.96
2023-03-19T11:37:05.088Z,34.26
2023-03-19T11:39:45.814Z,34.38
2023-03-19T11:42:35.050Z,34.07
2023-03-19T11:45:12.606Z,33.56
2023-03-19T11:47:49.815Z,33.76
2023-03-19T11:50:26.722Z,34.69
2023-03-19T11:53:10.211Z,35.03
2023-03-19T11:55:43.533Z,34.83
2023-03-19T11:58:45.641Z,35.01
2023-03-19T12:01:23.144Z,34.60
2023-03-19T12:04:12.411Z,34.40
2023-03-19T12:06:50.892Z,34.04
2023-03-19T12:09:27.803Z,33.94
2023-03-19T12:12:03.141Z,35.11
2023-03-19T12:14:45.849Z,35.97
2023-03-19T12:17:31.245Z,35.14
2023-03-19T12:20:18.614Z,35.52
2023-03-19T12:23:00.623Z,36.03
2023-03-19T12:26:04.903Z,35.36
2023-03-19T12:28:36.885Z,34.98
2023-03-19T12:31:19.149Z,34.56
2023-03-19T12:33:50.619Z,34.44
2023-03-19T12:36:24.511Z,34.15
2023-03-19T12:39:01.168Z,34.85
2023-03-19T12:41:31.524Z,35.27
2023-03-19T12:44:05.409Z,34.81
2023-03-19T12:46:43.026Z,34.56
2023-03-19T12:49:15.938Z,34.18
2023-03-19T12:51:47.724Z,34.98
2023-03-19T12:54:20.949Z,34.79
2023-03-19T12:56:53.525Z,34.54
2023-03-19T12:59:32.489Z,34.06
2023-03-19T13:02:09.829Z,33.61
2023-03-19T13:04:48.768Z,33.55
2023-03-19T13:07:23.462Z,33.14
2023-03-19T13:09:57.833Z,33.68
2023-03-19T13:12:28.573Z,33.56
2023-03-19T13:15:02.126Z,34.43
2023-03-19T13:17:39.481Z,33.99
2023-03-19T13:20:19.342Z,33.27
2023-03-19T13:22:56.803Z,33.23
2023-03-19T13:25:32.499Z,33.98
2023-03-19T13:28:00.583Z,33.62
2023-03-19T13:30:28.558Z,34.12
2023-03-19T13:33:06.296Z,34.79
2023-03-19T13:35:41.125Z,34.24
2023-03-19T13:38:19.946Z,34.03
2023-03-19T13:40:50.811Z,34.10
2023-03-19T13:43:51.443Z,33.99
2023-03-19T13:46:38.098Z,34.06
2023-03-19T13:49:32.159Z,33.96
2023-03-19T13:52:03.269Z,34.33
2023-03-19T13:54:37.659Z,34.25
2023-03-19T13:57:18.763Z,33.75
2023-03-19T13:59:48.328Z,34.21
2023-03-19T14:02:54.662Z,34.83
2023-03-19T14:05:24.115Z,34.66
2023-03-19T14:07:56.058Z,34.53
2023-03-19T14:10:27.303Z,33.56
2023-03-19T14:13:06.301Z,33.58
2023-03-19T14:15:36.870Z,33.83
2023-03-19T14:18:07.545Z,34.14
2023-03-19T14:20:48.192Z,33.75
2023-03-19T14:23:31.679Z,34.20
2023-03-19T14:26:11.935Z,34.14
2023-03-19T14:29:00.667Z,34.77
2023-03-19T14:31:36.104Z,34.31
2023-03-19T14:34:15.634Z,35.26
2023-03-19T14:36:50.252Z,34.94
2023-03-19T14:39:23.730Z,34.89
2023-03-19T14:41:57.581Z,34.48
2023-03-19T14:44:51.644Z,34.93
2023-03-19T14:47:35.829Z,34.96
2023-03-19T14:50:31.237Z,34.76
2023-03-19T14:53:06.097Z,35.22
2023-03-19T14:55:36.156Z,35.14
2023-03-19T14:58:04.699Z,34.89
2023-03-19T15:00:43.140Z,34.99
2023-03-19T15:03:23.960Z,35.25
2023-03-19T15:05:57.736Z,35.61
2023-03-19T15:08:28.398Z,35.56
2023-03-19T15:11:24.917Z,35.25
2023-03-19T15:14:13.779Z,35.75
2023-03-19T15:16:53.537Z,35.13
2023-03-19T15:19:27.224Z,35.51
2023-03-19T15:22:06.093Z,35.47
2023-03-19T15:24:36.241Z,36.01
2023-03-19T15:27:04.285Z,36.27
2023-03-19T15:29:33.319Z,35.98
2023-03-19T15:32:07.588Z,36.03
2023-03-19T15:34:37.621Z,36.19
2023-03-19T15:37:10.688Z,35.96
2023-03-19T15:39:46.679Z,36.22
2023-03-19T15:42:17.509Z,36.56
2023-03-19T15:44:49.453Z,36.91
2023-03-19T15:47:23.720Z,37.09
2023-03-19T15:49:56.388Z,37.22
2023-03-19T15:52:25.549Z,37.65
2023-03-19T15:54:57.221Z,37.36
2023-03-19T15:57:26.349Z,37.04
2023-03-19T15:59:57.191Z,37.64
2023-03-19T16:02:28.518Z,37.88
2023-03-19T16:05:20.451Z,37.96
2023-03-19T16:07:45.494Z,38.26
2023-03-19T16:10:40.834Z,38.33
2023-03-19T16:13:33.067Z,38.34
2023-03-19T16:16:03.537Z,38.72
2023-03-19T16:18:32.364Z,39.05
2023-03-19T16:21:08.333Z,38.85
2023-03-19T16:23:38.450Z,39.16
2023-03-19T16:26:21.693Z,39.63
2023-03-19T16:29:00.276Z,39.95
2023-03-19T16:31:32.254Z,40.25
2023-03-19T16:34:01.332Z,40.75
2023-03-19T16:36:31.397Z,40.72
2023-03-19T16:39:15.478Z,40.74
2023-03-19T16:41:46.012Z,41.23
2023-03-19T16:44:17.508Z,41.32
2023-03-19T16:46:46.098Z,41.46
2023-03-19T16:49:14.117Z,41.77
2023-03-19T16:51:42.330Z,41.68
2023-03-19T16:54:13.909Z,42.58
2023-03-19T16:56:41.882Z,43.03
2023-03-19T16:59:20.888Z,42.94
2023-03-19T17:01:48.898Z,42.99
2023-03-19T17:04:17.666Z,43.41
2023-03-19T17:06:46.010Z,43.96
2023-03-19T17:09:14.091Z,44.90
2023-03-19T17:11:44.138Z,45.49
2023-03-19T17:14:19.003Z,46.07
2023-03-19T17:16:50.864Z,46.20
2023-03-19T17:19:22.252Z,45.86
2023-03-19T17:21:53.537Z,46.14
2023-03-19T17:24:26.332Z,46.11
2023-03-19T17:26:55.431Z,46.20
2023-03-19T17:29:25.488Z,46.53
2023-03-19T17:31:54.911Z,47.28
2023-03-19T17:34:25.369Z,47.32
2023-03-19T17:36:56.082Z,47.40
2023-03-19T17:39:24.750Z,47.28
2023-03-19T17:41:53.911Z,47.77
2023-03-19T17:44:21.856Z,48.36
2023-03-19T17:46:53.314Z,48.24
2023-03-19T17:49:23.902Z,48.97
2023-03-19T17:51:52.811Z,49.26
2023-03-19T17:54:21.398Z,49.94
2023-03-19T17:56:50.668Z,50.23
2023-03-19T17:59:19.607Z,50.43
2023-03-19T18:01:48.385Z,50.86
2023-03-19T18:04:20.231Z,51.28
2023-03-19T18:06:51.937Z,51.37
2023-03-19T18:09:22.449Z,51.53
2023-03-19T18:11:51.161Z,52.06
2023-03-19T18:14:19.128Z,52.06
2023-03-19T18:16:48.106Z,52.73
2023-03-19T18:19:22.250Z,52.48
2023-03-19T18:21:50.141Z,52.35
2023-03-19T18:24:18.176Z,52.23
2023-03-19T18:26:46.288Z,52.84
2023-03-19T18:29:14.230Z,53.71
2023-03-19T18:31:44.084Z,53.34
2023-03-19T18:34:15.130Z,53.99
2023-03-19T18:36:44.545Z,54.08
2023-03-19T18:39:14.242Z,55.56
2023-03-19T18:41:42.174Z,55.92
2023-03-19T18:44:12.182Z,56.58
2023-03-19T18:46:41.599Z,56.06
2023-03-19T18:49:20.871Z,56.32
2023-03-19T18:52:01.733Z,56.21
2023-03-19T18:54:31.183Z,56.96
2023-03-19T18:57:01.320Z,56.57
2023-03-19T18:59:32.567Z,56.76
2023-03-19T19:02:03.072Z,57.21
2023-03-19T19:04:31.286Z,58.19
2023-03-19T19:07:01.798Z,58.82
2023-03-19T19:09:29.754Z,59.06
2023-03-19T19:12:00.856Z,59.60
2023-03-19T19:14:30.533Z,59.55
2023-03-19T19:16:58.445Z,59.72
2023-03-19T19:19:27.892Z,59.85
2023-03-19T19:21:56.101Z,60.15
2023-03-19T19:24:25.398Z,60.99
2023-03-19T19:26:54.386Z,62.08
2023-03-19T19:29:25.614Z,62.25
2023-03-19T19:31:54.599Z,62.40
2023-03-19T19:34:22.785Z,62.85
2023-03-19T19:36:51.312Z,62.93
2023-03-19T19:39:19.490Z,63.81
2023-03-19T19:41:49.179Z,64.59
2023-03-19T19:44:20.011Z,65.27
2023-03-19T19:46:47.951Z,65.74
2023-03-19T19:49:16.633Z,65.81
2023-03-19T19:51:44.573Z,66.35
2023-03-19T19:54:12.517Z,66.40
2023-03-19T19:56:41.420Z,66.88
2023-03-19T19:59:16.473Z,66.54
2023-03-19T20:01:44.607Z,66.26
2023-03-19T20:04:15.049Z,66.68
2023-03-19T20:06:43.047Z,66.87
2023-03-19T20:09:11.358Z,67.11
2023-03-19T20:11:39.968Z,67.02
2023-03-19T20:14:14.454Z,67.01
2023-03-19T20:16:42.422Z,68.14
2023-03-19T20:19:19.129Z,68.96
2023-03-19T20:21:47.318Z,69.70
2023-03-19T20:24:15.596Z,69.91
2023-03-19T20:26:44.619Z,70.19
2023-03-19T20:29:16.076Z,71.33
2023-03-19T20:31:46.918Z,71.45
2023-03-19T20:34:28.718Z,71.91
2023-03-19T20:37:00.684Z,72.22
2023-03-19T20:39:28.705Z,71.99
2023-03-19T20:41:57.153Z,71.69
2023-03-19T20:44:26.826Z,72.57
2023-03-19T20:46:54.778Z,72.16
2023-03-19T20:49:22.942Z,73.17
2023-03-19T20:51:50.905Z,73.76
2023-03-19T20:54:18.850Z,73.16
2023-03-19T20:56:47.682Z,72.72
2023-03-19T20:59:15.669Z,72.86
2023-03-19T21:01:45.010Z,73.44
2023-03-19T21:04:19.659Z,74.49
2023-03-19T21:06:53.387Z,74.94
2023-03-19T21:09:22.611Z,74.58
2023-03-19T21:11:50.541Z,74.49
2023-03-19T21:14:18.807Z,74.05
2023-03-19T21:16:48.154Z,73.58
2023-03-19T21:19:16.076Z,73.44
2023-03-19T21:21:44.144Z,73.47
2023-03-19T21:24:16.178Z,74.10
2023-03-19T21:26:46.367Z,75.04
2023-03-19T21:29:18.533Z,76.00
2023-03-19T21:31:48.339Z,76.31
2023-03-19T21:34:16.358Z,75.61
2023-03-19T21:36:44.228Z,75.63
2023-03-19T21:39:12.141Z,75.22
2023-03-19T21:41:40.113Z,75.21
2023-03-19T21:44:12.616Z,75.49
2023-03-19T21:46:40.619Z,76.01
2023-03-19T21:49:13.172Z,76.24
2023-03-19T21:51:42.691Z,76.43
2023-03-19T21:54:11.375Z,77.04
2023-03-19T21:56:41.784Z,76.48
2023-03-19T21:59:15.285Z,76.89
2023-03-19T22:01:43.808Z,77.07
2023-03-19T22:04:13.195Z,76.63
2023-03-19T22:06:43.115Z,77.49
2023-03-19T22:09:11.105Z,78.59
2023-03-19T22:11:41.692Z,78.30
2023-03-19T22:14:17.715Z,78.36
2023-03-19T22:16:46.322Z,78.52
2023-03-19T22:19:17.799Z,79.31
2023-03-19T22:21:45.986Z,79.48
2023-03-19T22:24:14.022Z,79.03
2023-03-19T22:26:43.733Z,78.91
2023-03-19T22:29:16.845Z,78.33
2023-03-19T22:31:44.914Z,78.49
2023-03-19T22:34:17.410Z,78.19
2023-03-19T22:36:45.789Z,77.84
2023-03-19T22:39:14.298Z,78.29
2023-03-19T22:41:45.709Z,78.22
2023-03-19T22:44:21.047Z,78.46
2023-03-19T22:46:48.956Z,78.27
2023-03-19T22:49:18.902Z,77.52
2023-03-19T22:51:47.481Z,78.27
2023-03-19T22:54:15.730Z,78.83
2023-03-19T22:56:43.998Z,78.78
2023-03-19T22:59:12.098Z,79.44
2023-03-19T23:01:43.231Z,79.53
2023-03-19T23:04:23.103Z,79.32
2023-03-19T23:06:51.954Z,79.49
2023-03-19T23:09:22.417Z,79.49
2023-03-19T23:11:50.305Z,80.54
2023-03-19T23:14:28.947Z,80.13
2023-03-19T23:17:01.962Z,79.64
2023-03-19T23:19:33.223Z,79.81
2023-03-19T23:22:03.667Z,80.01
2023-03-19T23:24:31.936Z,80.20
2023-03-19T23:27:01.446Z,80.05
2023-03-19T23:29:32.447Z,79.52
2023-03-19T23:32:00.534Z,79.44
2023-03-19T23:34:29.590Z,78.96
2023-03-19T23:37:00.003Z,79.65
2023-03-19T23:39:28.411Z,80.68
2023-03-19T23:41:58.269Z,79.99
2023-03-19T23:44:29.172Z,79.24
2023-03-19T23:47:01.067Z,78.81
2023-03-19T23:49:32.343Z,78.75
2023-03-19T23:52:03.657Z,79.23
2023-03-19T23:54:33.148Z,79.53
2023-03-19T23:57:04.290Z,79.20
2023-03-19T23:59:35.723Z,79.42
